Time;durP1;ratioP1;P1;durP2;ratioP2;P2;SDS_P1;SDS_P2;PMS_P1;PMS_P2;Temp;Humidity;BMP_temperature;BMP_pressure;BME280_temperature;BME280_humidity;BME280_pressure;Samples;Min_cycle;Max_cycle;Signal;HPM_P1;HPM_P2
2022/03/29 00:01:28;;;;;;;16.50;7.60;;;9.50;96.90;;;10.45;88.91;97975.72;5021451;28;20489;-77
2022/03/29 00:03:59;;;;;;;13.13;6.93;;;9.50;97.00;;;10.42;89.22;97975.28;5022691;28;20437;-77
2022/03/29 00:06:29;;;;;;;17.37;7.97;;;9.50;96.80;;;10.35;89.25;97970.00;5023859;28;20849;-77
2022/03/29 00:08:59;;;;;;;24.07;8.20;;;9.50;97.10;;;10.33;89.78;97966.78;5022708;28;20830;-77
2022/03/29 00:11:29;;;;;;;14.93;7.70;;;9.40;97.10;;;10.34;89.69;97962.38;5021973;28;20880;-77
2022/03/29 00:14:02;;;;;;;16.33;7.67;;;9.40;97.20;;;10.34;89.58;97968.41;5020296;28;20453;-77
2022/03/29 00:16:32;;;;;;;9.80;6.60;;;9.40;97.00;;;10.33;89.75;97963.34;5021455;28;20478;-77
2022/03/29 00:19:03;;;;;;;13.70;7.10;;;9.40;97.30;;;10.31;90.66;97968.75;5025473;28;20568;-77
2022/03/29 00:21:34;;;;;;;15.97;7.80;;;9.30;97.60;;;10.31;90.92;97960.91;5025780;28;20751;-77
2022/03/29 00:24:04;;;;;;;20.73;8.23;;;9.30;97.70;;;10.30;90.81;97961.94;5026699;28;20456;-77
2022/03/29 00:26:34;;;;;;;11.30;7.10;;;9.40;97.30;;;10.25;90.99;97951.22;5025812;28;20454;-77
2022/03/29 00:29:03;;;;;;;14.63;8.60;;;9.30;97.40;;;10.19;91.47;97953.75;5027589;28;21076;-77
2022/03/29 00:31:34;;;;;;;22.83;7.20;;;9.40;97.30;;;10.17;91.42;97951.31;5025845;28;20452;-77
2022/03/29 00:34:06;;;;;;;12.90;6.73;;;9.30;97.30;;;10.17;91.71;97946.09;5026055;28;20451;-77
2022/03/29 00:36:36;;;;;;;12.77;7.37;;;9.20;97.50;;;10.18;91.57;97947.72;5026586;28;20517;-77
2022/03/29 00:39:06;;;;;;;12.50;7.53;;;9.10;97.60;;;10.16;91.55;97952.34;5026032;28;20482;-77
2022/03/29 00:41:35;;;;;;;13.20;7.07;;;9.20;97.60;;;10.13;91.92;97940.41;5025999;28;20446;-77
2022/03/29 00:44:07;;;;;;;13.07;6.63;;;9.30;97.50;;;10.07;92.38;97941.16;5025420;28;20442;-77
2022/03/29 00:46:39;;;;;;;15.40;7.00;;;9.20;97.70;;;10.08;92.26;97936.75;5025085;28;20899;-77
2022/03/29 00:49:10;;;;;;;9.70;7.00;;;9.20;97.40;;;10.04;92.92;97930.28;5025713;28;20529;-77
2022/03/29 00:51:41;;;;;;;10.10;6.87;;;9.20;97.70;;;10.05;93.21;97926.69;5024582;28;20535;-77
2022/03/29 00:54:13;;;;;;;15.00;7.20;;;9.10;97.70;;;10.03;93.57;97931.28;5025853;28;20512;-77
2022/03/29 00:56:46;;;;;;;28.63;8.53;;;9.00;98.00;;;10.01;93.57;97921.00;5026189;28;20438;-77
2022/03/29 00:59:18;;;;;;;12.20;7.13;;;9.00;98.10;;;10.01;93.25;97922.81;5025949;28;21468;-77
2022/03/29 01:01:49;;;;;;;17.07;7.20;;;9.10;98.00;;;10.02;93.51;97914.00;5026465;28;20476;-77
2022/03/29 01:04:20;;;;;;;15.80;8.07;;;9.00;97.90;;;10.00;93.08;97916.78;5026123;28;20801;-77
2022/03/29 01:06:51;;;;;;;13.63;7.20;;;9.10;97.80;;;10.00;93.06;97913.34;5023845;28;20464;-77
2022/03/29 01:09:21;;;;;;;12.93;7.23;;;9.10;97.90;;;10.00;93.32;97908.94;5022897;28;20441;-77
2022/03/29 01:11:51;;;;;;;15.53;8.03;;;9.10;97.80;;;9.97;93.14;97908.50;5023653;28;20458;-77
2022/03/29 01:14:21;;;;;;;13.07;8.20;;;9.00;98.00;;;9.96;93.32;97907.69;5023898;28;20462;-77
2022/03/29 01:19:44;;;;;;;15.83;7.70;;;9.00;98.10;;;9.92;93.80;97909.09;5025249;28;20480;-77
2022/03/29 01:22:19;;;;;;;15.77;7.60;;;9.00;97.90;;;9.89;94.40;97911.25;5025884;28;20528;-77
2022/03/29 01:24:51;;;;;;;11.23;6.50;;;9.00;97.90;;;9.85;94.51;97910.00;5016699;28;20438;-77
2022/03/29 01:27:22;;;;;;;15.47;7.73;;;9.00;98.00;;;9.84;94.64;97900.53;5026100;28;20446;-77
2022/03/29 01:29:57;;;;;;;11.53;7.60;;;9.00;98.10;;;9.82;94.77;97900.72;5025032;28;20853;-77
2022/03/29 01:32:29;;;;;;;11.53;7.30;;;9.00;98.10;;;9.81;95.03;97903.53;5024508;28;20433;-77
2022/03/29 01:35:01;;;;;;;13.00;7.03;;;8.90;98.30;;;9.81;95.19;97895.69;5025182;28;20521;-77
2022/03/29 01:37:33;;;;;;;14.30;8.07;;;8.90;98.30;;;9.82;95.31;97899.94;5023780;28;20445;-77
2022/03/29 01:40:07;;;;;;;18.60;8.70;;;8.90;98.50;;;9.80;95.23;97892.28;5023464;28;20533;-76
2022/03/29 01:42:37;;;;;;;14.93;7.87;;;8.90;98.30;;;9.79;95.68;97892.47;5023326;28;20450;-77
2022/03/29 01:45:10;;;;;;;15.80;6.90;;;8.90;98.20;;;9.76;95.91;97883.19;5023967;28;20818;-77
2022/03/29 01:47:40;;;;;;;13.50;7.13;;;8.90;98.40;;;9.74;96.13;97886.97;5024799;28;20444;-76
2022/03/29 01:50:11;;;;;;;16.23;8.60;;;8.90;98.30;;;9.69;96.40;97884.91;5024190;28;20454;-77
2022/03/29 01:52:45;;;;;;;13.60;8.10;;;8.80;98.40;;;9.68;96.65;97885.13;5024829;28;20530;-77
2022/03/29 01:55:18;;;;;;;14.30;7.37;;;8.80;98.70;;;9.70;96.58;97877.91;5025485;28;20442;-77
2022/03/29 01:57:53;;;;;;;12.23;7.60;;;8.80;98.70;;;9.70;96.68;97875.28;5023498;28;20447;-77
2022/03/29 02:00:33;;;;;;;14.70;8.00;;;8.80;98.80;;;9.70;96.94;97875.28;5024488;28;20768;-77
2022/03/29 02:03:07;;;;;;;13.80;8.20;;;8.80;98.40;;;9.69;97.16;97868.44;5023892;28;20976;-76
2022/03/29 02:05:38;;;;;;;10.70;7.00;;;8.90;98.50;;;9.68;97.29;97866.84;5025097;28;20426;-77
2022/03/29 02:08:09;;;;;;;17.90;8.40;;;8.80;98.60;;;9.67;97.32;97863.41;5023856;28;20457;-77
2022/03/29 02:10:41;;;;;;;14.57;7.93;;;8.80;98.70;;;9.65;97.42;97867.22;5024525;28;20438;-76
2022/03/29 02:13:11;;;;;;;11.53;7.80;;;8.80;98.80;;;9.65;97.33;97867.22;5024221;28;20481;-77
2022/03/29 02:15:42;;;;;;;16.40;9.80;;;8.80;98.80;;;9.64;97.80;97860.38;5023267;28;20450;-77
2022/03/29 02:18:11;;;;;;;17.93;10.17;;;8.80;98.70;;;9.63;98.17;97859.56;5023426;28;20451;-77
2022/03/29 02:20:42;;;;;;;15.83;7.90;;;8.80;98.80;;;9.61;97.81;97857.13;5023073;28;20837;-77
2022/03/29 02:23:15;;;;;;;17.83;8.60;;;8.70;98.90;;;9.59;98.37;97853.09;5023579;28;20939;-77
2022/03/29 02:25:46;;;;;;;18.03;9.33;;;8.70;99.00;;;9.58;98.52;97852.28;5023713;28;20446;-77
2022/03/29 02:28:16;;;;;;;20.57;8.90;;;8.60;99.30;;;9.57;98.38;97850.69;5024704;28;20931;-77
2022/03/29 02:30:47;;;;;;;17.47;8.23;;;8.70;99.00;;;9.57;98.68;97839.44;5024420;28;20826;-77
2022/03/29 02:33:17;;;;;;;16.53;8.70;;;8.70;99.10;;;9.57;98.81;97842.84;5023609;28;20470;-77
2022/03/29 02:35:49;;;;;;;18.83;8.13;;;8.70;98.90;;;9.59;99.06;97843.47;5023899;28;20458;-77
2022/03/29 02:38:20;;;;;;;17.10;9.30;;;8.70;99.10;;;9.58;98.83;97836.63;5022739;28;21111;-77
2022/03/29 02:40:51;;;;;;;21.53;8.63;;;8.70;99.00;;;9.56;99.20;97841.22;5022969;28;21065;-77
2022/03/29 02:43:21;;;;;;;25.67;9.27;;;8.60;99.10;;;9.54;99.60;97832.75;5016641;28;20528;-77
2022/03/29 02:45:51;;;;;;;20.33;8.90;;;8.60;99.40;;;9.52;99.70;97826.94;5022039;28;20538;-77
2022/03/29 02:48:21;;;;;;;16.50;8.47;;;8.70;99.20;;;9.51;99.87;97822.69;5023261;28;20438;-77
2022/03/29 02:50:51;;;;;;;18.20;9.00;;;8.80;99.00;;;9.50;100.00;97821.09;5022350;28;20450;-77
2022/03/29 02:53:23;;;;;;;27.33;9.47;;;8.70;99.10;;;9.49;100.00;97816.84;5025094;28;20466;-76
2022/03/29 02:55:55;;;;;;;20.20;9.53;;;8.60;99.40;;;9.50;100.00;97810.66;5020946;28;20509;-76
2022/03/29 02:58:25;;;;;;;18.93;10.00;;;8.60;99.50;;;9.53;100.00;97820.72;5023425;28;20442;-76
2022/03/29 03:00:56;;;;;;;25.57;10.20;;;8.60;99.50;;;9.55;100.00;97813.50;5021967;28;20492;-76
2022/03/29 03:03:29;;;;;;;16.87;9.53;;;8.70;99.30;;;9.54;100.00;97814.47;5022581;28;20469;-76
2022/03/29 03:06:00;;;;;;;18.80;9.70;;;8.70;99.30;;;9.56;100.00;97807.28;5022320;28;20450;-76
2022/03/29 03:08:32;;;;;;;19.10;10.70;;;8.60;99.70;;;9.57;100.00;97808.91;5022653;28;20453;-76
2022/03/29 03:11:02;;;;;;;19.80;10.20;;;8.70;99.60;;;9.58;100.00;97800.06;5024266;28;20450;-76
2022/03/29 03:13:38;;;;;;;20.37;10.67;;;8.60;99.70;;;9.60;100.00;97800.72;5022044;28;20948;-76
2022/03/29 03:16:07;;;;;;;32.13;9.73;;;8.70;99.80;;;9.59;100.00;97795.66;5022845;28;20860;-76
2022/03/29 03:18:37;;;;;;;19.77;10.40;;;8.70;99.80;;;9.59;100.00;97791.25;5021466;28;20488;-76
2022/03/29 03:21:07;;;;;;;25.93;9.80;;;8.70;99.70;;;9.61;100.00;97788.47;5020727;28;20482;-76
2022/03/29 03:23:38;;;;;;;18.83;9.50;;;8.70;99.80;;;9.63;100.00;97788.25;5023457;28;20501;-76
2022/03/29 03:26:08;;;;;;;16.57;9.10;;;8.70;99.80;;;9.64;100.00;97785.47;5023362;28;20453;-76
2022/03/29 03:28:39;;;;;;;17.10;9.30;;;8.70;99.80;;;9.64;100.00;97782.88;5022235;28;20522;-76
2022/03/29 03:31:10;;;;;;;18.13;9.10;;;8.70;99.70;;;9.63;100.00;97785.66;5022357;28;20875;-76
2022/03/29 03:33:40;;;;;;;18.07;9.90;;;8.70;99.70;;;9.62;100.00;97784.84;5022958;28;20496;-76
2022/03/29 03:36:11;;;;;;;17.67;10.10;;;8.70;99.60;;;9.61;100.00;97778.81;5022735;28;20634;-76
2022/03/29 03:38:42;;;;;;;33.47;10.90;;;8.70;99.70;;;9.61;100.00;97775.41;5022716;28;20453;-75
2022/03/29 03:41:13;;;;;;;17.10;9.73;;;8.70;99.50;;;9.57;100.00;97776.78;5022323;28;20489;-76
2022/03/29 03:43:43;;;;;;;19.60;9.90;;;8.80;99.30;;;9.56;100.00;97772.53;5022114;28;20442;-76
2022/03/29 03:46:14;;;;;;;22.63;10.73;;;8.80;99.40;;;9.55;100.00;97768.31;5022856;28;20442;-76
2022/03/29 03:48:43;;;;;;;18.27;9.90;;;8.70;99.60;;;9.51;100.00;97762.66;5004781;28;20454;-76
2022/03/29 03:51:12;;;;;;;23.97;9.40;;;8.70;99.60;;;9.50;100.00;97763.66;5022233;28;20443;-76
2022/03/29 03:53:44;;;;;;;15.30;9.47;;;8.70;99.60;;;9.50;100.00;97755.84;5021305;28;20462;-76
2022/03/29 03:56:14;;;;;;;21.20;10.37;;;8.60;99.80;;;9.49;100.00;97753.41;5022928;28;20827;-76
2022/03/29 03:58:44;;;;;;;17.77;9.67;;;8.60;99.80;;;9.48;100.00;97762.22;5022921;28;20453;-76
2022/03/29 04:01:14;;;;;;;17.03;9.60;;;8.60;99.90;;;9.45;100.00;97747.75;5022361;28;20501;-76
2022/03/29 04:03:45;;;;;;;21.87;10.23;;;8.50;99.90;;;9.45;100.00;97762.59;5023021;28;20792;-76
2022/03/29 04:06:13;;;;;;;17.60;10.40;;;8.50;99.90;;;9.43;100.00;97754.16;5021700;28;20998;-76
2022/03/29 04:08:44;;;;;;;23.10;9.47;;;8.50;99.90;;;9.41;100.00;97749.13;5023401;28;20456;-76
2022/03/29 04:11:13;;;;;;;21.20;10.10;;;8.60;99.90;;;9.42;100.00;97752.53;5022802;28;20449;-76
2022/03/29 04:13:46;;;;;;;18.73;9.67;;;8.50;99.90;;;9.42;100.00;97749.94;5022015;28;20486;-76
2022/03/29 04:16:16;;;;;;;20.97;10.60;;;8.50;99.90;;;9.41;100.00;97743.09;5019651;28;21164;-76
2022/03/29 04:18:44;;;;;;;26.90;11.30;;;8.50;99.90;;;9.40;100.00;97744.91;5020827;28;20500;-76
2022/03/29 04:21:13;;;;;;;22.13;11.60;;;8.50;99.90;;;9.36;100.00;97741.06;5021893;28;20536;-76
2022/03/29 04:23:44;;;;;;;20.90;10.47;;;8.50;99.70;;;9.33;100.00;97741.44;5022870;28;20501;-76
2022/03/29 04:26:14;;;;;;;23.30;10.10;;;8.50;99.90;;;9.34;100.00;97739.59;5023733;28;20457;-76
2022/03/29 04:28:43;;;;;;;20.50;9.73;;;8.40;99.90;;;9.34;100.00;97742.22;5020945;28;20447;-76
2022/03/29 04:31:13;;;;;;;22.03;10.57;;;8.50;99.90;;;9.33;100.00;97732.78;5022392;28;20516;-76
2022/03/29 04:33:45;;;;;;;17.77;9.60;;;8.40;99.90;;;9.30;100.00;97731.34;5023404;28;20500;-76
2022/03/29 04:36:16;;;;;;;26.73;10.97;;;8.40;99.90;;;9.28;100.00;97735.94;5021023;28;20924;-76
2022/03/29 04:38:47;;;;;;;17.10;9.60;;;8.30;99.90;;;9.26;100.00;97724.91;5021727;28;20438;-76
2022/03/29 04:41:18;;;;;;;22.00;10.53;;;8.30;99.90;;;9.26;100.00;97721.50;5021485;28;20489;-76
2022/03/29 04:43:48;;;;;;;24.67;11.13;;;8.30;99.90;;;9.23;100.00;97720.06;5022252;28;20446;-76
2022/03/29 04:46:18;;;;;;;19.77;9.67;;;8.30;99.90;;;9.19;100.00;97721.44;5022101;28;20447;-76
2022/03/29 04:48:52;;;;;;;21.57;11.20;;;8.30;99.90;;;9.17;100.00;97720.78;5020460;28;20454;-76
2022/03/29 04:51:21;;;;;;;22.53;11.20;;;8.30;99.90;;;9.14;100.00;97718.56;5023022;28;20496;-76
2022/03/29 04:53:52;;;;;;;46.33;11.10;;;8.30;99.90;;;9.09;100.00;97716.50;5022100;28;20529;-76
2022/03/29 04:56:22;;;;;;;22.10;10.70;;;8.10;99.90;;;9.08;100.00;97711.47;5023327;28;20447;-76
2022/03/29 04:58:52;;;;;;;28.90;12.00;;;8.10;99.90;;;9.04;100.00;97700.63;5020639;28;20468;-76
2022/03/29 05:01:21;;;;;;;20.70;11.63;;;8.10;99.90;;;9.01;100.00;97702.78;5019887;28;20559;-76
2022/03/29 05:03:51;;;;;;;21.50;11.07;;;8.10;99.90;;;9.00;100.00;97707.19;5019905;28;20854;-76
2022/03/29 05:06:21;;;;;;;27.53;12.13;;;8.10;99.90;;;8.99;100.00;97694.31;5022563;28;20866;-76
2022/03/29 05:08:53;;;;;;;25.73;11.67;;;8.00;99.90;;;8.96;100.00;97694.69;5023566;28;20443;-76
2022/03/29 05:11:23;;;;;;;21.30;11.33;;;8.00;99.90;;;8.93;100.00;97695.88;5022045;28;20507;-76
2022/03/29 05:13:52;;;;;;;18.80;10.20;;;8.00;99.90;;;8.91;100.00;97689.25;5026640;28;20458;-76
2022/03/29 05:16:22;;;;;;;21.83;12.37;;;8.00;99.90;;;8.87;100.00;97695.81;5025580;28;20504;-76
2022/03/29 05:18:55;;;;;;;17.93;11.13;;;8.00;99.90;;;8.84;100.00;97701.41;5026015;28;20454;-76
2022/03/29 05:21:27;;;;;;;30.50;12.23;;;7.90;99.90;;;8.82;100.00;97703.38;5023159;28;20483;-76
2022/03/29 05:23:58;;;;;;;18.43;10.80;;;7.90;99.90;;;8.82;100.00;97701.56;5026050;28;20974;-76
2022/03/29 05:26:29;;;;;;;22.40;11.73;;;7.80;99.90;;;8.81;100.00;97701.78;5026002;28;20443;-76
2022/03/29 05:28:58;;;;;;;20.43;10.27;;;7.90;99.90;;;8.80;100.00;97700.16;5023451;28;20982;-76
2022/03/29 05:31:28;;;;;;;28.50;12.50;;;7.90;99.90;;;8.78;100.00;97699.53;5026155;28;20967;-76
2022/03/29 05:34:04;;;;;;;24.07;10.80;;;7.90;99.90;;;8.72;100.00;97703.66;5026230;28;20442;-76
2022/03/29 05:36:35;;;;;;;24.00;11.93;;;7.70;99.90;;;8.73;100.00;97705.28;5023998;28;20517;-76
2022/03/29 05:39:08;;;;;;;20.93;11.03;;;7.80;99.90;;;8.72;100.00;97708.06;5025727;28;20818;-76
2022/03/29 05:41:39;;;;;;;21.97;11.70;;;7.80;99.90;;;8.71;100.00;97701.25;5024148;28;20477;-76
2022/03/29 05:44:09;;;;;;;22.27;11.73;;;7.80;99.90;;;8.69;100.00;97711.84;5026300;28;20549;-76
2022/03/29 05:49:28;;;;;;;26.70;12.47;;;7.80;99.90;;;8.67;100.00;97700.81;5014385;28;20458;-75
2022/03/29 05:51:57;;;;;;;23.73;10.93;;;7.70;99.90;;;8.69;100.00;97709.25;5024162;28;21054;-75
2022/03/29 05:54:30;;;;;;;24.43;11.50;;;7.70;99.90;;;8.70;100.00;97707.47;5025935;28;20488;-76
2022/03/29 05:57:01;;;;;;;29.83;12.73;;;7.70;99.90;;;8.71;100.00;97712.47;5023651;28;20454;-76
2022/03/29 05:59:32;;;;;;;26.80;11.40;;;7.80;99.90;;;8.73;100.00;97712.31;5026488;28;20521;-76
2022/03/29 06:02:04;;;;;;;20.67;11.07;;;7.70;99.90;;;8.74;100.00;97713.94;5025853;28;20501;-76
2022/03/29 06:04:35;;;;;;;22.83;11.10;;;7.70;99.90;;;8.75;100.00;97715.53;5025335;28;20441;-76
2022/03/29 06:07:07;;;;;;;22.27;11.47;;;7.70;99.90;;;8.77;100.00;97716.97;5024945;28;20451;-77
2022/03/29 06:09:38;;;;;;;25.50;13.27;;;7.80;99.90;;;8.80;100.00;97713.19;5025257;28;20457;-76
2022/03/29 06:12:10;;;;;;;21.70;11.60;;;7.80;99.90;;;8.80;100.00;97710.56;5024027;28;20460;-76
2022/03/29 06:14:41;;;;;;;24.83;12.23;;;7.90;99.90;;;8.80;100.00;97721.81;5023300;28;20454;-76
2022/03/29 06:17:12;;;;;;;23.23;12.13;;;8.00;99.90;;;8.83;100.00;97720.63;5024037;28;20442;-76
2022/03/29 06:19:42;;;;;;;30.77;12.20;;;7.90;99.90;;;8.85;100.00;97719.44;5023490;28;20458;-76
2022/03/29 06:22:34;;;;;;;24.70;11.60;;;8.00;99.90;;;8.89;100.00;97717.28;5023366;28;20564;-76
2022/03/29 06:25:08;;;;;;;28.57;13.70;;;8.00;99.90;;;8.92;100.00;97722.94;5024063;28;20449;-76
2022/03/29 06:27:37;;;;;;;29.20;14.07;;;8.10;99.90;;;8.93;100.00;97721.16;5021356;28;20466;-76
2022/03/29 06:30:09;;;;;;;29.03;11.50;;;8.10;99.90;;;8.95;100.00;97720.00;5021394;28;20461;-90
2022/03/29 06:32:47;;;;;;;26.03;12.50;;;8.10;99.90;;;8.99;100.00;97725.63;5018105;28;20468;-76
2022/03/29 06:35:21;;;;;;;27.33;12.07;;;8.10;99.90;;;9.02;100.00;97714.84;5011953;28;20465;-77
2022/03/29 06:37:54;;;;;;;24.50;12.43;;;8.10;99.90;;;9.03;100.00;97719.84;5020804;28;20682;-86
2022/03/29 06:40:27;;;;;;;36.87;17.70;;;8.20;99.90;;;9.03;100.00;97713.81;5020356;28;21012;-78
2022/03/29 06:42:59;;;;;;;26.90;14.10;;;8.20;99.90;;;9.06;100.00;97710.84;5021558;28;20537;-76
2022/03/29 06:45:29;;;;;;;26.70;12.70;;;8.20;99.90;;;9.09;100.00;97715.72;5022521;28;20470;-76
2022/03/29 06:48:00;;;;;;;25.27;12.50;;;8.20;99.90;;;9.12;100.00;97715.34;5024080;28;20486;-76
2022/03/29 06:50:32;;;;;;;35.13;12.40;;;8.20;99.90;;;9.17;100.00;97712.16;5023738;28;20449;-76
2022/03/29 06:53:04;;;;;;;26.80;13.90;;;8.30;99.90;;;9.21;100.00;97713.41;5022859;28;20782;-77
2022/03/29 06:55:36;;;;;;;26.00;13.83;;;8.30;99.90;;;9.24;100.00;97708.63;5024171;28;20454;-77
2022/03/29 06:58:06;;;;;;;34.43;14.20;;;8.30;99.90;;;9.28;100.00;97707.25;5022573;28;20973;-77
2022/03/29 07:00:36;;;;;;;32.80;13.80;;;8.40;99.90;;;9.33;100.00;97706.69;5023251;28;20470;-77
2022/03/29 07:03:08;;;;;;;26.73;14.87;;;8.40;99.90;;;9.37;100.00;97703.50;5021683;28;20577;-76
2022/03/29 07:05:39;;;;;;;34.90;14.23;;;8.50;99.90;;;9.41;100.00;97704.75;5023713;28;20434;-76
2022/03/29 07:08:10;;;;;;;31.80;16.07;;;8.50;99.90;;;9.46;100.00;97704.19;5022661;28;20937;-76
2022/03/29 07:13:29;;;;;;;29.50;13.90;;;8.60;99.90;;;9.59;100.00;97706.91;5022616;28;20472;-77
2022/03/29 07:15:58;;;;;;;25.83;14.53;;;8.70;99.90;;;9.65;100.00;97698.31;5023467;28;20488;-76
2022/03/29 07:18:27;;;;;;;29.77;16.10;;;8.70;99.90;;;9.69;100.00;97698.75;5022379;28;20450;-76
2022/03/29 07:20:58;;;;;;;33.83;15.53;;;8.80;99.90;;;9.75;100.00;97695.41;5022725;28;20884;-78
2022/03/29 07:23:29;;;;;;;36.77;17.30;;;8.80;99.90;;;9.81;100.00;97694.63;5021508;28;21361;-76
2022/03/29 07:26:00;;;;;;;29.23;14.63;;;8.90;99.90;;;9.85;100.00;97681.00;5018955;28;20609;-76
2022/03/29 07:28:30;;;;;;;37.03;17.30;;;8.90;99.90;;;9.91;100.00;97690.69;5015391;28;20465;-77
2022/03/29 07:30:59;;;;;;;47.07;17.83;;;9.00;99.90;;;9.95;100.00;97688.50;5017505;28;20990;-76
2022/03/29 07:33:31;;;;;;;36.97;17.23;;;9.20;99.90;;;9.98;100.00;97675.03;5017002;28;20458;-77
2022/03/29 07:36:03;;;;;;;36.73;17.47;;;9.10;99.90;;;10.02;100.00;97679.72;5019606;28;20512;-76
2022/03/29 07:38:32;;;;;;;36.90;16.70;;;9.10;99.90;;;10.07;100.00;97672.09;5017394;28;20461;-76
2022/03/29 07:41:03;;;;;;;35.87;16.50;;;9.20;99.90;;;10.14;100.00;97674.75;5020475;28;20474;-76
2022/03/29 07:43:33;;;;;;;39.77;17.77;;;9.30;99.90;;;10.20;100.00;97668.78;5016252;28;20490;-77
2022/03/29 07:46:03;;;;;;;39.63;18.80;;;9.30;99.90;;;10.25;100.00;97676.81;5016367;28;20454;-76
2022/03/29 07:48:33;;;;;;;41.87;18.67;;;9.40;99.90;;;10.31;100.00;97667.44;5017585;28;20901;-76
2022/03/29 07:51:23;;;;;;;42.10;19.27;;;9.50;99.90;;;10.35;100.00;97672.03;5014663;28;20459;-76
2022/03/29 07:53:53;;;;;;;46.63;16.97;;;9.50;99.90;;;10.39;100.00;97669.84;5016464;28;20469;-75
2022/03/29 07:56:23;;;;;;;65.37;33.33;;;9.50;99.90;;;10.45;100.00;97671.69;5016857;28;20981;-75
2022/03/29 07:58:53;;;;;;;42.07;20.80;;;9.50;99.90;;;10.49;100.00;97668.50;5012280;28;20461;-76
2022/03/29 08:01:23;;;;;;;39.90;18.80;;;9.60;99.90;;;10.55;100.00;97674.75;5017408;28;20486;-76
2022/03/29 08:03:53;;;;;;;39.27;18.97;;;9.70;99.90;;;10.59;100.00;97668.13;5013361;28;20580;-76
2022/03/29 08:06:23;;;;;;;39.03;19.10;;;9.90;99.90;;;10.63;100.00;97673.75;5020548;28;20458;-76
2022/03/29 08:08:54;;;;;;;46.80;19.77;;;9.90;99.90;;;10.67;100.00;97669.75;5018198;28;20500;-77
2022/03/29 08:11:27;;;;;;;49.60;21.50;;;10.00;99.90;;;10.68;100.00;97668.75;5017084;28;20473;-76
2022/03/29 08:13:57;;;;;;;34.00;18.67;;;10.10;99.90;;;10.71;100.00;97661.31;5013651;28;20454;-76
2022/03/29 08:16:28;;;;;;;42.30;21.53;;;10.20;99.90;;;10.73;100.00;97656.69;5017835;28;20845;-76
2022/03/29 08:18:57;;;;;;;50.03;20.37;;;10.20;99.90;;;10.76;100.00;97658.13;5016285;28;20476;-76
2022/03/29 08:24:26;;;;;;;41.03;20.37;;;10.20;99.90;;;10.91;100.00;97658.75;4958197;28;20558;-76
2022/03/29 08:26:57;;;;;;;45.27;21.60;;;10.20;99.90;;;11.00;100.00;97647.09;5003401;28;20458;-76
2022/03/29 08:29:29;;;;;;;40.17;20.47;;;10.30;99.90;;;11.07;100.00;97643.47;4999256;28;20550;-76
2022/03/29 08:32:00;;;;;;;54.20;21.60;;;10.30;99.90;;;11.15;100.00;97642.47;5011725;28;21353;-77
2022/03/29 08:34:30;;;;;;;43.47;20.80;;;10.40;99.90;;;11.25;100.00;97636.84;5018577;28;20458;-76
2022/03/29 08:37:01;;;;;;;45.97;22.03;;;10.50;99.90;;;11.35;100.00;97639.88;5015777;28;20826;-77
2022/03/29 08:39:31;;;;;;;40.27;21.53;;;10.50;99.90;;;11.43;100.00;97637.84;5018219;28;20955;-76
2022/03/29 08:42:10;;;;;;;200.03;85.33;;;10.60;99.90;;;11.55;100.00;97635.44;5022262;28;20548;-76
2022/03/29 08:44:40;;;;;;;58.93;29.77;;;10.70;99.90;;;11.65;100.00;97632.41;5023498;28;20485;-75
2022/03/29 08:47:12;;;;;;;49.60;26.53;;;10.90;99.90;;;11.77;100.00;97634.22;5019536;28;20461;-75
2022/03/29 08:49:43;;;;;;;59.77;27.37;;;11.00;99.90;;;11.89;100.00;97626.53;5009675;28;20485;-76
2022/03/29 08:52:13;;;;;;;59.67;26.80;;;11.30;99.90;;;11.97;100.00;97621.91;4975654;28;20495;-76
2022/03/29 08:54:44;;;;;;;56.30;25.80;;;11.30;99.90;;;12.08;100.00;97618.59;5005003;28;20474;-76
2022/03/29 08:57:15;;;;;;;56.70;26.07;;;11.40;99.90;;;12.17;100.00;97621.81;4999692;28;20451;-76
2022/03/29 08:59:45;;;;;;;62.13;25.87;;;11.60;99.90;;;12.27;100.00;97613.50;5003500;28;20459;-76
2022/03/29 09:02:17;;;;;;;55.80;27.50;;;11.70;99.90;;;12.36;100.00;97620.09;5000799;28;20521;-76
2022/03/29 09:05:09;;;;;;;54.87;25.03;;;11.80;99.90;;;12.47;100.00;97612.41;5003468;28;20815;-76
2022/03/29 09:07:52;;;;;;;58.33;25.70;;;12.00;99.90;;;12.56;99.25;97610.34;5004427;28;20461;-75
2022/03/29 09:10:39;;;;;;;58.63;26.40;;;12.10;99.50;;;12.68;98.09;97603.41;5002881;28;20458;-75
2022/03/29 09:13:20;;;;;;;61.93;26.10;;;12.20;99.40;;;12.78;95.75;97595.06;5000617;28;20450;-76
2022/03/29 09:15:51;;;;;;;53.13;26.10;;;12.30;99.00;;;12.89;94.48;97600.44;5002301;28;20473;-76
2022/03/29 09:18:21;;;;;;;58.40;25.57;;;12.50;98.60;;;12.97;92.81;97592.31;4986282;28;21040;-76
2022/03/29 09:21:08;;;;;;;54.40;26.60;;;12.60;98.30;;;13.08;91.95;97601.34;5001407;28;20461;-76
2022/03/29 09:23:39;;;;;;;48.43;25.87;;;12.70;98.30;;;13.16;91.50;97593.22;5001996;28;20569;-75
2022/03/29 09:26:27;;;;;;;58.27;25.30;;;12.70;98.10;;;13.27;90.47;97597.78;5002669;28;20467;-76
2022/03/29 09:28:59;;;;;;;60.50;27.70;;;12.80;97.90;;;13.32;89.19;97590.06;5002165;28;20498;-75
2022/03/29 09:31:29;;;;;;;46.90;24.57;;;12.90;97.50;;;13.39;88.79;97592.63;5003287;28;20482;-75
2022/03/29 09:34:14;;;;;;;44.37;22.27;;;12.90;97.50;;;13.47;87.98;97585.25;4999846;28;20466;-75
2022/03/29 09:36:49;;;;;;;47.90;22.90;;;13.00;97.40;;;13.54;87.61;97579.94;5006594;28;20455;-75
2022/03/29 09:39:35;;;;;;;38.80;21.07;;;13.00;97.20;;;13.61;86.56;97576.22;5005920;28;20458;-75
2022/03/29 09:42:14;;;;;;;59.33;24.00;;;13.10;97.10;;;13.68;85.94;97567.47;5004019;28;20832;-74
2022/03/29 09:44:47;;;;;;;61.03;23.77;;;13.20;97.00;;;13.74;86.22;97569.25;5005124;28;20506;-75
2022/03/29 09:47:20;;;;;;;53.30;23.63;;;13.20;97.10;;;13.80;85.84;97565.75;5005653;28;20443;-75
2022/03/29 09:49:59;;;;;;;49.70;25.00;;;13.30;97.00;;;13.86;85.34;97565.66;5006217;28;20443;-74
2022/03/29 09:52:32;;;;;;;58.00;25.20;;;13.40;96.90;;;13.91;85.50;97560.56;5005991;28;20463;-75
2022/03/29 09:55:16;;;;;;;54.10;25.57;;;13.30;96.90;;;13.99;84.85;97572.59;5005638;28;20476;-75
2022/03/29 09:57:48;;;;;;;50.33;24.80;;;13.50;96.80;;;14.04;84.47;97563.03;5005484;28;20443;-75
2022/03/29 10:00:37;;;;;;;50.63;25.00;;;13.50;96.80;;;14.11;84.39;97558.50;5004408;28;20501;-75
2022/03/29 10:03:10;;;;;;;52.83;26.27;;;13.60;96.70;;;14.16;84.61;97549.91;5001660;28;20467;-75
2022/03/29 10:05:42;;;;;;;45.77;25.20;;;13.70;96.80;;;14.22;84.62;97543.00;5004398;28;20487;-75
2022/03/29 10:11:07;;;;;;;56.33;23.90;;;13.80;96.70;;;14.28;83.81;97542.91;5001444;28;20486;-75
2022/03/29 10:13:38;;;;;;;53.47;26.20;;;13.70;96.60;;;14.33;83.86;97540.41;5001997;28;20463;-75
2022/03/29 10:16:14;;;;;;;64.17;25.20;;;13.70;96.70;;;14.40;83.88;97535.91;5001858;28;20462;-75
2022/03/29 10:18:44;;;;;;;53.77;25.63;;;13.90;96.80;;;14.40;83.58;97533.28;4999910;28;21027;-74
2022/03/29 10:21:15;;;;;;;49.37;25.00;;;13.80;96.70;;;14.44;83.62;97531.78;5003175;28;20466;-74
2022/03/29 10:23:48;;;;;;;57.30;25.63;;;13.80;96.70;;;14.49;83.04;97534.53;5002485;28;20494;-74
2022/03/29 10:26:22;;;;;;;48.83;25.40;;;13.90;96.60;;;14.53;83.18;97535.72;5000579;28;20542;-74
2022/03/29 10:28:52;;;;;;;47.50;24.60;;;14.00;96.70;;;14.57;83.11;97526.34;5002221;28;20463;-74
2022/03/29 10:31:31;;;;;;;62.10;27.27;;;14.00;96.60;;;14.61;83.24;97516.94;4998544;28;20472;-74
2022/03/29 10:34:17;;;;;;;50.40;24.40;;;14.00;96.70;;;14.65;83.14;97525.19;5000706;28;20454;-74
2022/03/29 10:37:10;;;;;;;49.67;26.17;;;14.10;96.60;;;14.70;82.15;97517.44;5003471;28;20463;-74
2022/03/29 10:39:49;;;;;;;54.27;26.50;;;14.20;96.30;;;14.73;81.42;97516.19;5002137;28;20558;-74
2022/03/29 10:42:38;;;;;;;52.97;25.63;;;14.20;96.00;;;14.77;80.98;97509.44;5000888;28;20474;-74
2022/03/29 10:45:16;;;;;;;58.50;27.43;;;14.20;96.00;;;14.81;81.19;97510.59;5002149;28;20560;-75
2022/03/29 10:48:12;;;;;;;53.97;24.70;;;14.30;96.10;;;14.86;80.19;97508.06;5002398;28;20470;-74